Date,TemperatureHighF,TemperatureAvgF,TemperatureLowF,DewpointHighF,DewpointAvgF,DewpointLowF,HumidityHigh,HumidityAvg,HumidityLow,PressureMaxIn,PressureMinIn,WindSpeedMaxMPH,WindSpeedAvgMPH,GustSpeedMaxMPH,PrecipitationSumIn
2013-1-1,25,20,13,18,14,10,90,79,66,0.00,40.00,4,2,7,0.00
2013-1-2,29,20,11,15,12,7,86,72,52,0.00,40.00,4,2,8,0.00
2013-1-3,22,12,6,11,7,2,87,80,61,0.00,40.00,3,1,5,0.00
2013-1-4,21,14,6,16,10,2,87,81,73,0.00,40.00,3,2,6,0.00
2013-1-5,27,19,13,20,16,10,92,87,72,0.00,40.00,3,1,5,0.00
2013-1-6,29,25,20,26,22,18,94,88,77,0.00,40.00,2,1,6,0.00
2013-1-7,39,31,26,35,26,22,96,82,68,0.00,40.00,5,2,17,0.02
2013-1-8,42,37,32,31,27,22,90,69,47,0.00,40.00,4,3,12,0.02
2013-1-9,38,35,33,36,34,30,99,93,82,0.00,40.00,4,2,7,0.43
2013-1-10,34,29,20,34,28,17,99,95,88,0.00,40.00,3,1,9,0.15
2013-1-11,30,17,7,17,12,3,89,81,55,0.00,40.00,1,0,4,0.00
2013-1-12,14,8,0,7,3,-4,85,80,68,0.00,40.00,0,0,0,0.00
2013-1-13,18,8,5,6,3,0,84,78,60,0.00,40.00,2,0,6,0.01
2013-1-14,18,12,6,13,7,1,89,81,72,0.00,40.00,1,0,6,0.01
2013-1-15,31,21,16,22,17,14,93,86,70,0.00,40.00,3,0,6,0.03
2013-1-16,24,16,9,16,12,5,92,85,69,0.00,40.00,3,0,5,0.02
2013-1-17,24,14,6,18,11,2,92,86,72,0.00,40.00,3,0,5,0.01
2013-1-18,36,22,11,28,17,8,90,83,70,0.00,40.00,4,1,9,0.15
2013-1-19,37,25,18,24,20,15,91,81,46,0.00,40.00,3,1,6,0.13
2013-1-20,37,24,17,25,19,14,93,82,54,0.00,40.00,3,2,6,0.08
2013-1-21,31,21,12,22,17,9,93,83,63,0.00,40.00,4,2,6,0.03
2013-1-22,28,18,10,20,14,7,91,84,70,0.00,40.00,3,1,5,0.01
2013-1-23,29,22,15,23,18,13,91,83,69,0.00,40.00,3,1,5,0.01
2013-1-24,45,35,28,36,27,23,90,75,47,0.00,40.00,6,2,12,0.00
2013-1-25,41,34,30,36,29,24,99,84,66,0.00,40.00,3,2,13,0.04
2013-1-26,39,34,31,37,33,30,99,96,81,0.00,40.00,3,2,7,0.11
2013-1-27,41,31,25,33,24,19,93,79,46,0.00,40.00,4,2,8,0.01
2013-1-28,37,30,24,27,21,17,95,72,44,0.00,40.00,5,3,12,0.00
2013-1-29,35,28,25,29,26,22,96,90,71,0.00,40.00,3,2,8,0.15
2013-1-30,42,33,26,32,28,25,95,85,57,0.00,40.00,6,2,11,0.03
2013-1-31,42,40,37,33,31,28,77,71,68,0.00,40.00,3,2,7,0.01
2013-2-1,47,38,33,36,29,23,97,72,38,0.00,40.00,5,2,14,0.01
2013-2-2,45,33,25,28,25,22,90,74,48,0.00,40.00,4,2,7,0.01
2013-2-3,41,31,22,29,25,20,95,78,53,0.00,40.00,3,2,13,0.00
2013-2-4,46,40,35,31,28,25,75,61,45,0.00,40.00,5,3,14,0.00
2013-2-5,48,36,32,36,30,27,85,78,62,0.00,40.00,3,2,8,0.00
2013-2-6,41,34,26,36,27,20,97,77,43,0.00,40.00,6,3,14,0.01
2013-2-7,37,30,24,26,24,21,90,80,61,0.00,40.00,4,2,6,0.01
2013-2-8,42,32,27,33,28,25,95,82,63,0.00,40.00,4,2,10,0.00
2013-2-9,33,29,27,29,25,20,97,83,58,0.00,40.00,3,1,6,0.00
2013-2-10,42,29,22,29,21,15,94,74,40,0.00,40.00,4,2,8,0.07
2013-2-11,34,27,20,23,19,16,86,72,57,0.00,40.00,5,2,11,0.01
2013-2-12,41,33,27,32,25,23,85,73,54,0.00,40.00,4,2,14,0.00
2013-2-13,43,38,33,35,30,25,90,73,50,0.00,40.00,4,2,12,0.01
2013-2-14,46,35,27,29,24,20,90,64,36,0.00,40.00,4,2,13,0.01
2013-2-15,47,36,29,30,27,25,89,68,48,0.00,40.00,4,2,10,0.00
2013-2-16,44,33,24,35,28,23,95,82,63,0.00,40.00,4,2,16,0.04
2013-2-17,38,32,28,32,29,26,98,88,73,0.00,40.00,3,2,8,0.20
2013-2-18,42,32,25,27,23,14,96,72,34,0.00,40.00,6,2,11,0.03
2013-2-19,41,32,25,27,22,19,85,69,41,0.00,40.00,4,2,9,0.03
2013-2-20,38,32,27,30,22,14,95,70,43,0.00,40.00,4,2,9,0.01
2013-2-21,40,28,17,25,18,13,87,69,41,0.00,40.00,7,2,13,0.01
2013-2-22,43,34,26,28,24,20,89,67,40,0.00,40.00,5,3,19,0.00
2013-2-23,37,32,27,32,20,14,96,61,43,0.00,40.00,5,3,18,0.01
2013-2-24,40,30,24,21,19,17,77,64,41,0.00,40.00,5,2,12,0.00
2013-2-25,40,31,26,27,21,18,87,65,47,0.00,40.00,4,2,14,0.00
2013-2-26,37,31,26,26,20,14,87,63,39,0.00,40.00,5,2,11,0.00
2013-2-27,39,30,22,22,18,16,83,64,45,0.00,40.00,4,2,8,0.00
2013-2-28,43,34,26,32,28,21,94,78,55,0.00,40.00,5,2,10,0.02
2013-3-1,52,40,32,39,34,30,96,81,53,0.00,40.00,5,2,19,0.01
2013-3-2,53,39,30,39,33,29,97,81,51,0.00,40.00,4,2,7,0.02
2013-3-3,42,36,29,38,24,12,99,65,32,0.00,40.00,8,4,21,0.03
2013-3-4,40,29,19,25,17,12,93,65,34,0.00,40.00,4,2,11,0.04
2013-3-5,42,29,15,21,15,12,87,59,33,0.00,40.00,3,2,7,0.04
2013-3-6,41,33,28,35,28,22,98,83,70,0.00,40.00,4,2,9,0.12
2013-3-7,50,36,27,33,27,20,99,73,34,0.00,40.00,5,2,12,0.14
2013-3-8,49,32,20,27,22,18,93,71,35,0.00,40.00,4,2,10,0.01
2013-3-9,51,36,25,25,22,19,86,59,31,0.00,40.00,5,3,12,0.00
2013-3-10,50,38,24,33,24,19,91,60,32,0.00,40.00,4,3,10,0.00
2013-3-11,51,39,33,33,23,13,94,57,23,0.00,40.00,6,3,15,0.00
2013-3-12,47,37,30,38,29,20,86,72,54,0.00,40.00,4,2,10,0.02
2013-3-13,61,46,37,43,34,26,94,68,27,0.00,40.00,7,2,16,0.02
2013-3-14,59,45,31,35,32,29,91,64,39,0.00,40.00,3,2,7,0.00
2013-3-15,57,48,38,37,32,27,73,55,34,0.00,40.00,6,3,14,0.00
2013-3-16,51,41,34,38,32,28,93,70,44,0.00,40.00,5,3,15,0.00
2013-3-17,39,33,27,35,23,17,91,68,42,0.00,40.00,6,3,21,0.06
2013-3-18,42,31,26,28,22,14,96,71,35,0.00,40.00,5,3,17,0.01
2013-3-19,46,33,20,27,22,14,96,71,28,0.00,40.00,5,2,10,0.14
2013-3-20,55,38,29,41,30,23,96,74,46,0.00,40.00,7,3,16,0.14
2013-3-21,42,33,27,30,19,14,94,60,36,0.00,40.00,5,3,17,0.12
2013-3-22,33,27,22,26,22,17,92,80,67,0.00,40.00,4,2,9,0.03
2013-3-23,32,25,17,25,20,14,93,80,57,0.00,40.00,4,2,9,0.08
2013-3-24,42,27,16,21,16,8,90,67,28,0.00,40.00,4,2,8,0.01
2013-3-25,49,31,16,25,17,13,88,61,30,0.00,40.00,4,2,9,0.00
2013-3-26,56,41,32,31,26,23,79,58,31,0.00,40.00,4,2,11,0.00
2013-3-27,59,39,29,37,28,23,87,68,36,0.00,40.00,5,2,10,0.00
2013-3-28,57,49,39,46,38,34,85,65,49,0.00,40.00,4,2,9,0.01
2013-3-29,55,45,36,42,36,31,96,73,45,0.00,40.00,4,2,10,0.01
2013-3-30,63,46,31,38,30,-100,94,62,28,0.00,40.00,5,3,11,0.00
2013-3-31,67,46,28,34,29,26,94,59,22,0.00,40.00,4,2,9,0.00
2013-4-1,69,50,33,34,30,26,84,50,24,0.00,40.00,4,2,9,0.00
2013-4-2,68,47,31,38,32,28,92,62,26,0.00,40.00,4,3,13,0.00
2013-4-3,66,48,37,42,35,29,89,66,27,0.00,40.00,5,3,17,0.00
2013-4-4,65,50,36,44,36,30,87,63,36,0.00,40.00,4,2,10,0.00
2013-4-5,59,49,40,44,37,31,87,66,38,0.00,40.00,6,3,16,0.01
2013-4-6,55,44,38,44,37,31,98,79,50,0.00,40.00,5,2,24,0.24
2013-4-7,50,41,34,43,35,28,96,80,55,0.00,40.00,6,2,13,0.05
2013-4-8,44,36,29,33,19,10,89,52,32,0.00,40.00,7,4,14,0.01
2013-4-9,50,34,20,23,14,7,72,45,25,0.00,40.00,6,3,11,0.00
2013-4-10,55,42,29,41,31,23,96,66,42,0.00,40.00,5,2,10,0.13
2013-4-11,49,41,32,38,30,23,97,66,39,0.00,40.00,5,3,14,0.14
2013-4-12,56,42,30,29,26,20,89,58,26,0.00,40.00,6,3,13,0.01
2013-4-13,45,39,31,36,26,15,94,60,34,0.00,40.00,7,3,23,0.02
2013-4-14,41,34,30,33,28,24,95,82,62,0.00,40.00,5,3,14,0.04
2013-4-15,40,32,23,22,12,7,72,46,30,0.00,40.00,5,4,13,0.01
2013-4-16,42,31,20,21,12,6,64,46,31,0.00,40.00,6,3,15,0.01
2013-4-17,49,32,16,16,11,7,73,44,20,0.00,40.00,5,3,14,0.00
2013-4-18,53,39,24,24,19,13,68,46,28,0.00,40.00,5,3,14,0.00
2013-4-19,52,45,38,42,32,24,81,62,49,0.00,40.00,4,2,14,0.01
2013-4-20,58,47,37,38,34,28,92,64,33,0.00,40.00,6,3,16,0.01
2013-4-21,53,40,25,38,31,21,95,74,45,0.00,40.00,8,4,18,0.02
2013-4-22,43,31,17,23,20,14,89,66,39,0.00,40.00,5,3,10,0.32
2013-4-23,51,34,19,27,22,17,91,66,32,0.00,40.00,6,3,13,0.10
2013-4-24,63,43,25,33,25,18,91,57,19,0.00,40.00,5,3,13,0.00
2013-4-25,67,52,36,36,28,24,79,43,20,0.00,40.00,5,3,15,0.00
2013-4-26,73,54,33,35,31,24,86,46,21,0.00,40.00,6,4,15,0.00
2013-4-27,71,56,42,41,31,26,73,43,20,0.00,40.00,8,4,21,0.00
2013-4-28,57,51,42,41,36,31,81,57,37,0.00,40.00,5,3,15,0.00
2013-4-29,50,45,36,42,33,23,92,65,44,0.00,40.00,7,4,20,0.14
2013-4-30,40,33,27,34,24,15,96,73,38,0.00,40.00,5,2,13,0.11
2013-5-1,51,38,27,33,27,20,97,70,33,0.00,40.00,4,2,11,0.11
2013-5-2,67,44,26,30,25,22,88,55,19,0.00,40.00,5,3,8,0.06
2013-5-3,60,48,41,40,35,28,74,61,45,0.00,40.00,5,3,12,0.00
2013-5-4,64,50,36,42,36,30,95,64,34,0.00,40.00,5,2,14,0.00
2013-5-5,74,55,37,41,35,31,88,52,23,0.00,40.00,5,3,11,0.00
2013-5-6,79,59,37,43,35,25,89,47,16,0.00,40.00,4,3,8,0.00
2013-5-7,80,60,40,43,36,29,84,48,23,0.00,40.00,6,3,12,0.00
2013-5-8,80,62,44,41,37,34,73,44,19,0.00,40.00,5,3,9,0.00
2013-5-9,79,59,42,63,41,32,83,57,21,0.00,40.00,4,2,9,0.05
2013-5-10,81,64,45,53,43,31,91,55,20,0.00,40.00,7,3,14,0.04
2013-5-11,83,61,44,48,41,-100,93,57,17,0.00,40.00,5,3,12,0.04
2013-5-12,86,66,47,52,45,40,84,52,20,0.00,40.00,6,3,16,0.00
2013-5-13,81,62,45,56,49,42,92,65,26,0.00,40.00,5,3,21,0.31
2013-5-14,67,55,42,42,36,27,93,52,29,0.00,40.00,5,3,14,0.30
2013-5-15,68,50,34,39,35,29,88,59,32,0.00,40.00,4,2,10,0.00
2013-5-16,62,46,43,47,22,-100,96,75,44,0.00,40.00,4,2,14,0.14
2013-5-17,54,47,41,51,40,-100,98,89,80,0.00,40.00,2,0,5,0.17
2013-5-18,58,50,44,51,47,43,99,91,69,0.00,40.00,5,1,9,0.21
2013-5-19,59,50,41,46,44,40,99,81,56,0.00,40.00,4,2,7,0.14
2013-5-20,72,57,43,46,42,38,95,63,31,0.00,40.00,5,3,10,0.00
2013-5-21,76,60,42,46,42,37,93,57,25,0.00,40.00,6,3,14,0.00
2013-5-22,60,49,40,50,44,38,95,83,61,0.00,40.00,5,2,10,0.15
2013-5-23,61,48,38,39,35,30,97,65,35,0.00,40.00,6,3,14,0.06
2013-5-24,62,50,36,39,34,31,90,58,35,0.00,40.00,8,3,21,0.00
2013-5-25,63,48,32,38,34,30,93,61,35,0.00,40.00,5,3,9,0.00
2013-5-26,71,52,34,45,39,32,94,65,33,0.00,40.00,5,3,16,0.00
2013-5-27,65,55,48,50,46,42,92,72,48,0.00,40.00,4,3,11,0.06
2013-5-28,62,52,47,53,48,42,99,89,61,0.00,40.00,5,2,10,0.57
2013-5-29,69,54,40,49,43,39,99,74,33,0.00,40.00,5,3,15,0.23
2013-5-30,62,51,42,46,40,32,97,70,37,0.00,40.00,5,3,13,0.25
2013-5-31,61,52,39,44,38,33,89,61,35,0.00,40.00,4,2,10,0.02
2013-6-1,72,54,34,39,36,32,96,58,24,0.00,40.00,4,2,8,0.00
2013-6-2,60,52,45,49,45,39,98,79,54,0.00,40.00,5,2,11,0.40
2013-6-3,62,50,43,51,46,39,99,87,54,0.00,40.00,4,2,11,0.53
2013-6-4,69,56,47,47,41,33,96,61,30,0.00,40.00,5,3,9,0.05
2013-6-5,79,59,39,46,41,36,94,57,29,0.00,40.00,4,2,10,0.00
2013-6-6,83,65,47,49,44,35,86,51,27,0.00,40.00,4,2,9,0.00
2013-6-7,82,65,51,57,47,41,89,56,29,0.00,40.00,6,3,14,0.00
2013-6-8,81,68,55,46,36,31,60,34,17,0.00,40.00,6,4,15,0.00
2013-6-9,81,64,44,47,36,25,82,41,14,0.00,40.00,7,4,17,0.00
2013-6-10,80,64,45,40,34,31,75,37,17,0.00,40.00,4,3,9,0.00
2013-6-11,81,63,47,47,41,35,71,47,26,0.00,40.00,5,3,12,0.00
2013-6-12,72,59,48,47,42,38,81,55,37,0.00,40.00,6,3,14,0.00
2013-6-13,61,52,47,50,46,41,98,83,54,0.00,40.00,4,3,12,0.39
2013-6-14,65,52,38,47,39,33,98,68,32,0.00,40.00,7,3,18,0.13
2013-6-15,78,56,36,42,37,33,97,58,21,0.00,40.00,5,3,10,0.00
2013-6-16,84,63,42,44,39,34,88,48,18,0.00,40.00,5,3,12,0.00
2013-6-17,84,66,53,53,45,40,77,49,24,0.00,40.00,5,3,10,0.00
2013-6-18,86,66,50,54,49,45,84,57,29,0.00,40.00,5,3,12,0.00
2013-6-19,60,54,49,53,49,45,98,85,67,0.00,40.00,3,2,7,0.41
2013-6-20,58,48,44,47,44,38,99,86,48,0.00,40.00,5,2,13,0.54
2013-6-22,66,60,51,50,45,41,80,58,44,0.00,40.00,4,2,9,0.00
2013-6-23,77,60,40,49,44,40,99,62,32,0.00,40.00,4,2,8,0.00
2013-6-24,69,60,56,61,53,45,98,77,56,0.00,40.00,5,2,13,0.20
2013-6-25,74,59,51,57,53,49,100,84,44,0.00,40.00,5,2,12,0.28
2013-6-26,69,57,51,59,54,51,100,91,62,0.00,40.00,4,2,9,0.26
2013-6-27,85,65,49,58,53,47,98,72,36,0.00,40.00,5,3,9,0.01
2013-6-28,92,71,52,57,53,48,94,58,28,0.00,40.00,4,2,8,0.00
2013-6-29,88,72,55,63,56,52,91,62,35,0.00,40.00,5,3,12,0.00
2013-6-30,93,75,58,62,57,51,88,58,30,0.00,40.00,5,3,11,0.00
2013-7-1,98,76,58,63,56,49,90,56,19,0.00,40.00,4,3,10,0.00
2013-7-2,99,78,60,62,56,53,85,53,24,0.00,40.00,4,2,8,0.00
2013-7-3,96,82,63,64,52,43,79,41,19,0.00,40.00,5,3,18,0.00
2013-7-4,90,74,56,55,47,38,78,42,16,0.00,40.00,6,3,15,0.00
2013-7-5,87,70,52,46,41,29,72,38,22,0.00,40.00,5,3,10,0.00
2013-7-6,87,65,49,47,40,29,79,46,14,0.00,40.00,5,3,11,0.00
2013-7-7,89,69,49,47,43,39,76,43,21,0.00,40.00,5,3,11,0.00
2013-7-8,85,64,54,59,48,35,90,59,20,0.00,40.00,6,2,15,0.06
2013-7-9,88,68,49,50,44,39,84,49,20,0.00,40.00,4,3,9,0.01
2013-7-10,98,74,52,49,40,-100,67,35,15,0.00,40.00,4,2,9,0.00
2013-7-11,86,72,57,51,43,31,67,38,18,0.00,40.00,7,3,15,0.00
2013-7-12,84,66,49,52,46,37,81,52,19,0.00,40.00,6,3,17,0.00
2013-7-13,85,68,53,49,37,27,61,36,15,0.00,40.00,5,3,13,0.00
2013-7-14,90,67,47,43,35,23,71,36,9,0.00,40.00,5,3,13,0.00
2013-7-15,94,69,49,44,38,31,66,37,13,0.00,40.00,5,3,11,0.00
2013-7-16,93,84,74,54,50,45,50,32,21,0.00,40.00,5,4,11,0.00
2013-7-17,97,79,63,60,54,41,71,45,23,0.00,40.00,6,4,14,0.00
2013-7-18,94,75,54,52,41,27,69,36,9,0.00,40.00,5,3,12,0.00
2013-7-19,96,72,52,44,37,25,58,32,9,0.00,40.00,6,3,13,0.00
2013-7-20,95,72,53,43,36,-100,60,32,11,0.00,40.00,5,3,11,0.00
2013-7-21,96,74,51,44,34,21,60,29,8,0.00,40.00,5,3,11,0.00
2013-7-22,94,73,51,39,33,23,51,27,8,0.00,40.00,7,3,12,0.00
2013-7-23,96,73,51,41,36,30,58,30,12,0.00,40.00,5,3,10,0.00
2013-7-24,99,76,54,43,35,22,57,28,8,0.00,40.00,5,3,13,0.00
2013-7-25,98,77,59,50,41,27,62,31,11,0.00,40.00,6,3,10,0.00
2013-7-26,98,74,54,44,35,17,59,29,7,0.00,40.00,5,3,13,0.00
2013-7-27,93,74,54,38,32,26,47,24,10,0.00,40.00,6,3,14,0.00
2013-7-28,89,70,53,40,32,24,53,28,11,0.00,40.00,5,3,12,0.00
2013-7-29,87,71,53,45,36,22,54,30,14,0.00,40.00,5,3,10,0.00
2013-7-30,87,69,54,48,38,24,57,35,16,0.00,40.00,5,3,9,0.00
2013-7-31,92,71,49,43,37,28,64,34,10,0.00,40.00,5,3,16,0.00
2013-8-1,71,64,57,62,51,38,97,67,33,0.00,40.00,8,2,17,0.24
2013-8-2,67,57,48,56,51,47,100,83,58,0.00,40.00,5,2,16,0.12
2013-8-3,76,61,45,53,48,44,99,67,35,0.00,40.00,5,2,10,0.00
2013-8-4,85,65,47,53,47,36,95,59,24,0.00,40.00,5,3,9,0.00
2013-8-5,90,67,49,50,43,34,78,48,15,0.00,40.00,7,3,14,0.00
2013-8-6,87,70,51,50,44,39,79,44,21,0.00,40.00,4,2,9,0.00
2013-8-7,91,70,51,50,43,38,80,43,17,0.00,40.00,5,2,12,0.00
2013-8-8,91,72,52,50,42,29,68,38,13,0.00,40.00,5,3,14,0.00
2013-8-9,92,75,63,56,50,44,75,44,20,0.00,40.00,7,3,25,0.01
2013-8-10,91,74,57,55,49,38,82,45,18,0.00,40.00,4,3,16,0.01
2013-8-11,88,71,55,52,45,41,62,42,23,0.00,40.00,4,2,11,0.00
2013-8-12,86,69,53,52,45,40,70,46,20,0.00,40.00,4,2,10,0.06
2013-8-13,89,72,60,52,44,-100,68,42,19,0.00,40.00,5,3,12,0.06
2013-8-14,93,69,50,50,43,33,82,47,14,0.00,40.00,5,3,10,0.00
2013-8-15,99,66,52,44,26,-100,55,29,7,0.00,40.00,5,3,13,0.00
2013-8-16,96,72,54,47,36,-100,53,31,12,0.00,40.00,5,3,12,0.00
2013-8-17,90,74,58,54,45,-100,67,39,23,0.00,40.00,4,3,11,0.00
2013-8-18,92,75,57,54,47,34,76,42,19,0.00,40.00,6,3,18,0.01
2013-8-19,88,67,52,49,32,-100,66,37,18,0.00,40.00,6,3,14,0.00
2013-8-20,89,70,53,48,39,-100,66,37,16,0.00,40.00,5,2,11,0.00
2013-8-21,88,69,47,41,36,26,62,34,11,0.00,40.00,4,3,9,0.00
2013-8-22,88,72,54,41,37,34,51,31,17,0.00,40.00,4,2,8,0.00
2013-8-23,88,72,58,57,48,36,73,45,26,0.00,40.00,6,3,14,0.00
2013-8-24,89,71,52,52,44,-100,79,43,19,0.00,40.00,5,3,17,0.00
2013-8-25,90,70,57,58,46,40,95,48,20,0.00,40.00,6,3,16,0.05
2013-8-26,85,67,52,57,51,43,95,62,27,0.00,40.00,4,2,9,0.05
2013-8-27,80,60,48,49,44,41,78,58,27,0.00,40.00,5,2,7,0.00
2013-8-28,83,73,63,56,51,48,64,47,33,0.00,40.00,6,4,14,0.00
2013-8-29,92,67,53,62,52,46,98,66,23,0.00,40.00,5,2,17,0.15
2013-8-30,84,65,51,58,51,41,100,68,25,0.00,40.00,5,3,25,0.13
2013-8-31,87,64,47,50,44,-100,87,53,23,0.00,40.00,4,3,9,0.00
2013-9-1,95,70,48,47,43,36,80,46,15,0.00,40.00,5,2,9,0.00
2013-9-2,86,71,59,50,45,41,54,40,25,0.00,40.00,4,2,12,0.00
2013-9-3,78,68,59,55,50,47,67,54,39,0.00,40.00,4,2,9,0.00
2013-9-4,92,72,54,58,51,42,89,55,20,0.00,40.00,4,2,8,0.00
2013-9-5,80,70,62,67,55,48,89,60,46,0.00,40.00,5,2,14,0.04
2013-9-6,83,66,53,62,55,48,99,71,38,0.00,40.00,6,3,13,0.02
2013-9-7,84,66,50,52,46,-100,83,52,27,0.00,40.00,5,3,12,0.01
2013-9-8,67,57,48,56,47,41,94,70,52,0.00,40.00,4,2,9,0.09
2013-9-9,80,64,55,53,48,45,77,58,33,0.00,40.00,5,2,12,0.01
2013-9-10,85,65,49,51,46,40,94,56,22,0.00,40.00,4,2,9,0.00
2013-9-11,91,67,47,50,44,39,87,50,18,0.00,40.00,5,3,15,0.00
2013-9-12,90,72,59,50,44,39,59,40,20,0.00,40.00,4,2,9,0.00
2013-9-13,92,72,54,53,46,37,72,43,19,0.00,40.00,6,3,15,0.00
2013-9-14,82,68,56,54,46,-100,74,47,29,0.00,40.00,4,2,11,0.00
2013-9-15,89,72,56,50,46,42,64,43,25,0.00,40.00,6,3,19,0.00
2013-9-16,87,71,54,57,48,38,92,49,18,0.00,40.00,6,4,24,0.01
2013-9-17,69,57,46,53,47,41,95,69,45,0.00,40.00,4,2,11,0.01
2013-9-18,55,53,51,44,41,38,78,64,57,0.00,40.00,6,3,18,0.00
2013-9-19,70,54,41,45,38,31,89,60,27,0.00,40.00,6,2,13,0.00
2013-9-20,81,52,35,40,33,25,88,56,15,0.00,40.00,4,2,7,0.00
2013-9-21,75,56,42,40,34,-100,68,46,27,0.00,40.00,4,2,12,0.00
2013-9-22,60,52,45,51,46,39,96,80,53,0.00,40.00,5,2,11,0.00
2013-9-23,62,50,41,46,41,35,97,73,42,0.00,40.00,7,3,16,0.00
2013-9-24,51,47,44,47,44,39,98,88,74,0.00,40.00,4,2,10,0.00
2013-9-25,46,44,43,45,43,42,99,97,92,0.00,40.00,3,1,5,0.00
2013-9-26,53,44,35,46,38,30,98,81,46,0.00,40.00,4,2,10,0.09
2013-9-27,53,39,28,43,35,28,98,85,57,0.00,40.00,5,2,11,0.01
2013-9-28,63,51,42,44,39,-100,91,66,41,0.00,40.00,8,4,19,0.01
2013-9-29,56,49,43,45,40,35,87,70,55,0.00,40.00,8,5,18,0.20
2013-9-30,54,46,40,42,37,31,93,72,43,0.00,40.00,7,4,23,0.28
2013-10-1,46,44,40,36,35,34,84,73,62,0.00,40.00,3,2,9,0.09
2013-10-2,56,45,31,35,30,25,93,61,34,0.00,40.00,5,3,11,0.01
2013-10-3,50,44,39,32,29,25,76,58,41,0.00,40.00,5,2,14,0.00
2013-10-4,57,40,27,31,27,22,93,65,28,0.00,40.00,4,2,10,0.00
2013-10-5,62,40,27,33,28,24,93,68,27,0.00,40.00,4,2,7,0.00
2013-10-6,65,43,29,37,31,26,90,67,32,0.00,40.00,3,2,8,0.00
2013-10-7,69,49,32,37,32,26,91,59,27,0.00,40.00,6,2,11,0.00
2013-10-8,57,44,36,38,34,29,90,67,43,0.00,40.00,5,2,12,0.00
2013-10-9,60,42,34,42,35,32,97,78,40,0.00,40.00,4,2,10,0.00
2013-10-10,50,41,31,37,34,29,97,77,55,0.00,40.00,3,2,6,0.00
2013-10-11,54,43,32,38,30,23,93,64,31,0.00,40.00,5,2,11,0.00
2013-10-12,51,39,29,32,26,-100,90,66,37,0.00,40.00,3,2,6,0.00
2013-10-13,57,42,28,36,29,24,93,65,39,0.00,40.00,5,2,10,0.00
2013-10-14,53,43,36,37,30,27,82,62,42,0.00,40.00,4,2,8,0.00
2013-10-15,55,37,25,33,28,24,95,72,38,0.00,40.00,4,2,8,0.00
2013-10-16,52,39,29,33,30,26,92,72,46,0.00,40.00,3,2,7,0.00
2013-10-17,46,36,28,34,31,27,96,83,61,0.00,40.00,3,1,6,0.00
2013-10-18,56,36,24,35,29,23,96,80,42,0.00,40.00,4,2,7,0.00
2013-10-19,53,39,27,36,29,-100,95,71,47,0.00,40.00,4,2,6,0.00
2013-10-20,62,45,34,36,32,28,83,62,35,0.00,40.00,3,2,7,0.00
2013-10-21,62,43,30,38,34,29,97,74,40,0.00,40.00,4,2,9,0.00
2013-10-22,62,41,30,41,35,29,97,81,45,0.00,40.00,4,2,6,0.00
2013-10-23,62,40,29,38,33,28,97,79,37,0.00,40.00,3,2,6,0.00
2013-10-24,59,39,28,39,32,27,97,78,39,0.00,40.00,3,2,6,0.00
2013-10-25,61,39,28,36,31,27,96,76,37,0.00,40.00,3,2,6,0.00
2013-10-26,59,38,28,36,29,-100,96,75,39,0.00,40.00,3,2,6,0.00
2013-10-27,52,38,27,32,28,18,94,68,43,0.00,40.00,6,3,16,0.00
2013-10-28,38,32,28,20,12,-100,68,47,40,0.00,40.00,6,4,14,0.00
2013-10-29,42,29,19,18,15,11,78,57,37,0.00,40.00,3,2,10,0.00
2013-10-30,50,33,19,26,21,16,90,63,36,0.00,40.00,4,2,9,0.00
2013-10-31,48,41,37,38,30,23,89,67,46,0.00,40.00,4,2,8,0.00
2013-11-1,51,40,31,38,34,28,97,79,47,0.00,40.00,4,2,10,0.01
2013-11-2,49,36,30,39,30,-100,97,82,46,0.00,40.00,4,2,13,0.18
2013-11-3,40,34,29,31,26,21,95,73,51,0.00,40.00,4,2,14,0.14
2013-11-4,35,29,24,30,27,22,96,91,72,0.00,40.00,4,2,8,0.01
2013-11-5,33,27,19,28,23,17,96,85,52,0.00,40.00,4,2,9,0.03
2013-11-6,40,33,29,35,30,28,96,91,80,0.00,40.00,3,1,7,0.09
2013-11-7,43,37,33,39,35,31,98,91,79,0.00,40.00,3,1,12,0.11
2013-11-8,47,39,34,37,32,27,95,78,52,0.00,40.00,4,2,13,0.08
2013-11-9,44,34,27,31,27,-100,95,78,54,0.00,40.00,4,2,9,0.01
2013-11-10,47,40,33,40,35,30,96,83,68,0.00,40.00,4,2,7,0.01
2013-11-11,51,41,34,41,38,33,98,90,68,0.00,40.00,5,2,10,0.02
2013-11-12,46,40,34,39,36,34,98,88,69,0.00,40.00,3,2,7,0.01
2013-11-13,54,42,36,43,35,29,99,80,42,0.00,40.00,5,2,12,0.03
2013-11-14,47,38,31,33,30,27,92,74,48,0.00,40.00,3,2,7,0.02
2013-11-15,41,38,36,30,24,22,73,57,49,0.00,40.00,5,3,14,0.00
2013-11-16,42,35,31,36,26,-100,96,73,51,0.00,40.00,5,3,18,0.05
2013-11-17,35,32,28,31,28,25,95,86,69,0.00,40.00,4,2,12,0.03
2013-11-18,46,36,29,31,28,22,89,73,46,0.00,40.00,3,2,9,0.01
2013-11-19,54,41,33,40,35,29,88,79,49,0.00,40.00,6,2,16,0.01
2013-11-20,42,35,22,37,19,5,97,56,31,0.00,40.00,5,3,13,0.01
2013-11-21,32,19,11,12,8,4,82,65,34,0.00,40.00,3,2,7,0.00
2013-11-22,30,18,9,14,10,6,86,73,50,0.00,40.00,3,2,6,0.00
2013-11-23,32,18,10,16,11,-100,87,77,50,0.00,40.00,3,2,6,0.00
2013-11-24,33,22,13,22,16,10,89,77,56,0.00,40.00,3,1,6,0.00
2013-11-25,38,27,18,23,20,15,91,75,52,0.00,40.00,3,1,6,0.00
2013-11-26,37,28,18,26,22,16,92,79,59,0.00,40.00,4,1,6,0.00
2013-11-27,36,27,20,27,23,18,93,86,63,0.00,40.00,3,1,6,0.00
2013-11-28,33,23,17,27,20,15,94,89,74,0.00,40.00,3,1,6,0.00
2013-11-29,31,24,16,28,22,13,94,90,78,0.00,40.00,3,1,6,0.00
2013-11-30,39,34,31,33,28,-100,93,84,73,0.00,40.00,3,2,7,0.00
2013-12-1,42,38,33,39,36,32,98,95,87,0.00,40.00,5,2,14,0.24
2013-12-2,39,33,20,39,29,17,99,87,65,0.00,40.00,7,3,16,0.56
2013-12-3,21,12,4,17,4,-2,91,71,46,0.00,40.00,4,2,11,0.01
2013-12-4,17,4,-4,0,-5,-9,80,67,38,0.00,40.00,3,2,7,0.01
2013-12-5,10,0,-7,-3,-8,-13,80,70,51,0.00,40.00,3,2,6,0.00
2013-12-6,7,0,-6,-7,-14,-19,67,51,32,0.00,40.00,5,3,10,0.00
2013-12-7,4,-6,-13,-16,-20,-100,72,53,37,0.00,40.00,5,2,11,0.00
2013-12-8,3,-6,-14,-5,-12,-21,78,71,57,0.00,40.00,2,1,5,0.00
2013-12-9,9,3,-9,5,-2,-15,84,78,73,0.00,40.00,2,1,5,0.00
2013-12-10,25,19,9,21,15,5,90,85,79,0.00,40.00,2,1,4,0.00
2013-12-11,30,22,17,20,18,15,91,84,67,0.00,40.00,3,1,7,0.01
2013-12-12,28,23,20,22,20,18,91,86,76,0.00,40.00,3,1,8,0.01
2013-12-13,36,29,24,32,27,22,95,90,75,0.00,40.00,2,1,6,0.03
2013-12-14,36,31,28,32,28,-100,97,93,80,0.00,40.00,3,2,7,0.07
2013-12-15,48,35,25,32,28,24,98,78,49,0.00,40.00,5,3,22,0.23
2013-12-16,50,41,29,31,26,22,81,55,38,0.00,40.00,5,3,15,0.08
2013-12-17,38,29,23,27,23,21,92,78,61,0.00,40.00,3,2,7,0.00
2013-12-18,46,40,34,29,26,22,80,57,45,0.00,40.00,5,3,15,0.00
2013-12-19,33,24,17,29,16,11,91,72,52,0.00,40.00,7,3,15,0.00
2013-12-20,24,20,14,20,16,11,92,85,67,0.00,40.00,3,1,6,0.00
2013-12-21,34,25,21,26,21,-100,94,88,68,0.00,40.00,3,1,6,0.06
2013-12-22,38,30,27,31,28,26,97,91,70,0.00,40.00,3,1,5,0.05
2013-12-23,42,33,30,36,32,29,98,94,80,0.00,40.00,3,2,14,0.37
2013-12-24,39,33,24,30,23,18,87,66,46,0.00,40.00,4,2,10,0.30
2013-12-25,30,22,15,22,18,13,92,83,68,0.00,40.00,3,2,6,0.01
2013-12-26,38,30,24,28,23,20,88,76,54,0.00,40.00,3,2,6,0.01
2013-12-27,44,28,21,26,23,19,95,82,39,0.00,40.00,4,2,21,0.01
2013-12-28,42,37,33,29,21,-100,67,55,47,0.00,40.00,5,2,14,0.00
2013-12-29,36,31,25,26,20,16,77,66,58,0.00,40.00,4,2,12,0.00
2013-12-30,38,32,26,31,26,22,94,80,64,0.00,40.00,2,1,6,0.00
2013-12-31,41,35,32,37,32,27,98,88,64,0.00,40.00,4,2,12,0.06
2014-1-1,42,32,26,28,24,23,90,76,52,0.00,40.00,4,2,7,0.01
2014-1-2,35,30,25,30,25,22,91,81,63,0.00,40.00,3,1,8,0.00